SUMZM TNCM-TFFJ
Flight info
| Callsign | SUMZM |
|---|---|
| Flight time | 0h 11m |
| Altitude | 5000 |
| Route | PJM |
| Aircraft | PC12/L-SDFGRWY/S |
Departure
| Time | 2026-05-07 19:26 |
|---|---|
| Airport | Princess Juliana International Airport (TNCM) |
Arrival
| Time | 2026-05-07 19:37 |
|---|---|
| Airport | St. Jean Airport (TFFJ) |
| Time | Latitude | Longitude | Altitude | Speed | Heading |
|---|---|---|---|---|---|
| 2026-05-07 19:14 | 18.04189 | -63.11146 | 26 ft | 0 kts | 171° |
| 2026-05-07 19:24 | 18.04188 | -63.11146 | 25 ft | 1 kts | 170° |
| 2026-05-07 19:24 | 18.04147 | -63.11184 | 24 ft | 14 kts | 264° |
| 2026-05-07 19:24 | 18.04131 | -63.11282 | 24 ft | 13 kts | 233° |
| 2026-05-07 19:25 | 18.04107 | -63.11292 | 24 ft | 0 kts | 172° |
| 2026-05-07 19:25 | 18.04102 | -63.11291 | 23 ft | 2 kts | 171° |
| 2026-05-07 19:25 | 18.04073 | -63.11286 | 24 ft | 8 kts | 171° |
| 2026-05-07 19:25 | 18.04040 | -63.11261 | 25 ft | 0 kts | 82° |
| 2026-05-07 19:26 | 18.04050 | -63.11188 | 24 ft | 36 kts | 81° |
| 2026-05-07 19:26 | 18.04116 | -63.10730 | 50 ft | 84 kts | 81° |
| 2026-05-07 19:26 | 18.04173 | -63.10103 | 348 ft | 95 kts | 89° |
| 2026-05-07 19:26 | 18.03870 | -63.09387 | 622 ft | 128 kts | 141° |
| 2026-05-07 19:27 | 18.02949 | -63.09107 | 934 ft | 153 kts | 164° |
| 2026-05-07 19:27 | 18.01812 | -63.08857 | 1258 ft | 178 kts | 166° |
| 2026-05-07 19:27 | 18.00549 | -63.08562 | 1580 ft | 190 kts | 165° |
| 2026-05-07 19:27 | 17.99223 | -63.08253 | 1905 ft | 201 kts | 165° |
| 2026-05-07 19:28 | 17.97831 | -63.07932 | 2234 ft | 207 kts | 165° |
| 2026-05-07 19:28 | 17.96404 | -63.07605 | 2550 ft | 212 kts | 165° |
| 2026-05-07 19:28 | 17.94959 | -63.07272 | 2865 ft | 215 kts | 165° |
| 2026-05-07 19:28 | 17.93469 | -63.06913 | 2989 ft | 222 kts | 160° |
| 2026-05-07 19:29 | 17.92208 | -63.05993 | 2999 ft | 225 kts | 128° |
| 2026-05-07 19:29 | 17.91296 | -63.04635 | 3003 ft | 229 kts | 121° |
| 2026-05-07 19:29 | 17.90437 | -63.03207 | 3004 ft | 233 kts | 120° |
| 2026-05-07 19:29 | 17.89817 | -63.01669 | 3002 ft | 230 kts | 99° |
| 2026-05-07 19:30 | 17.89699 | -63.00008 | 3006 ft | 231 kts | 90° |
| 2026-05-07 19:30 | 17.89663 | -62.98316 | 3005 ft | 233 kts | 90° |
| 2026-05-07 19:30 | 17.89636 | -62.96602 | 3006 ft | 234 kts | 90° |
| 2026-05-07 19:30 | 17.89611 | -62.94888 | 3007 ft | 235 kts | 90° |
| 2026-05-07 19:31 | 17.89618 | -62.93183 | 3001 ft | 234 kts | 86° |
| 2026-05-07 19:31 | 17.89706 | -62.91620 | 2852 ft | 199 kts | 85° |
| 2026-05-07 19:31 | 17.89798 | -62.90247 | 2602 ft | 178 kts | 85° |
| 2026-05-07 19:31 | 17.89897 | -62.89035 | 2173 ft | 158 kts | 83° |
| 2026-05-07 19:32 | 17.90021 | -62.87948 | 1526 ft | 153 kts | 81° |
| 2026-05-07 19:32 | 17.90260 | -62.86959 | 1124 ft | 129 kts | 73° |
| 2026-05-07 19:32 | 17.90408 | -62.86120 | 731 ft | 108 kts | 88° |
| 2026-05-07 19:32 | 17.90388 | -62.85393 | 384 ft | 93 kts | 81° |
| 2026-05-07 19:33 | 17.90417 | -62.84759 | 154 ft | 81 kts | 84° |
| 2026-05-07 19:33 | 17.90455 | -62.84219 | 24 ft | 60 kts | 65° |
| 2026-05-07 19:33 | 17.90528 | -62.83752 | 88 ft | 69 kts | 72° |
| 2026-05-07 19:33 | 17.90889 | -62.83355 | 157 ft | 89 kts | 24° |
| 2026-05-07 19:34 | 17.91566 | -62.83356 | 377 ft | 121 kts | 337° |
| 2026-05-07 19:34 | 17.92198 | -62.84107 | 725 ft | 152 kts | 301° |
| 2026-05-07 19:34 | 17.92607 | -62.85209 | 884 ft | 177 kts | 287° |
| 2026-05-07 19:34 | 17.92904 | -62.86512 | 1055 ft | 186 kts | 281° |
| 2026-05-07 19:35 | 17.92909 | -62.87779 | 1048 ft | 169 kts | 258° |
| 2026-05-07 19:35 | 17.92514 | -62.88802 | 1171 ft | 131 kts | 232° |
| 2026-05-07 19:35 | 17.91812 | -62.89244 | 1164 ft | 110 kts | 178° |
| 2026-05-07 19:35 | 17.91226 | -62.88808 | 730 ft | 103 kts | 109° |
| 2026-05-07 19:36 | 17.90881 | -62.88245 | 621 ft | 88 kts | 121° |
| 2026-05-07 19:36 | 17.90564 | -62.87712 | 503 ft | 84 kts | 110° |
| 2026-05-07 19:36 | 17.90421 | -62.87159 | 555 ft | 77 kts | 93° |
| 2026-05-07 19:36 | 17.90371 | -62.86589 | 563 ft | 81 kts | 87° |
| 2026-05-07 19:37 | 17.90360 | -62.86000 | 527 ft | 82 kts | 83° |
| 2026-05-07 19:37 | 17.90386 | -62.85383 | 334 ft | 85 kts | 82° |
| 2026-05-07 19:37 | 17.90421 | -62.84782 | 150 ft | 77 kts | 83° |
| 2026-05-07 19:37 | 17.90447 | -62.84262 | 28 ft | 47 kts | 125° |
| 2026-05-07 19:38 | 17.90445 | -62.84132 | 17 ft | 16 kts | 86° |
| 2026-05-07 19:38 | 17.90428 | -62.84074 | 12 ft | 16 kts | 251° |
| 2026-05-07 19:38 | 17.90420 | -62.84084 | 12 ft | 1 kts | 163° |
| 2026-05-07 19:38 | 17.90422 | -62.84085 | 12 ft | 0 kts | 168° |
| 2026-05-07 19:39 | 17.90424 | -62.84086 | 12 ft | 1 kts | 166° |
| 2026-05-07 19:39 | 17.90430 | -62.84087 | 13 ft | 1 kts | 166° |
| 2026-05-07 19:39 | 17.90432 | -62.84088 | 13 ft | 0 kts | 168° |
| 2026-05-07 19:39 | 17.90434 | -62.84088 | 13 ft | 0 kts | 167° |
| 2026-05-07 19:40 | 17.90439 | -62.84089 | 13 ft | 1 kts | 167° |
| 2026-05-07 19:40 | 17.90442 | -62.84090 | 13 ft | 1 kts | 165° |
| 2026-05-07 19:40 | 17.90445 | -62.84091 | 13 ft | 0 kts | 167° |
| 2026-05-07 19:40 | 17.90427 | -62.84112 | 15 ft | 8 kts | 288° |
| 2026-05-07 19:41 | 17.90441 | -62.84162 | 19 ft | 14 kts | 272° |
| 2026-05-07 19:41 | 17.90441 | -62.84289 | 29 ft | 21 kts | 270° |
| 2026-05-07 19:41 | 17.90415 | -62.84389 | 35 ft | 8 kts | 199° |
| 2026-05-07 19:41 | 17.90382 | -62.84427 | 38 ft | 6 kts | 256° |
| 2026-05-07 19:42 | 17.90376 | -62.84462 | 41 ft | 1 kts | 263° |
| 2026-05-07 19:42 | 17.90376 | -62.84467 | 41 ft | 0 kts | 267° |